Time,TemperatureF,DewpointF,PressureIn,WindDirection,WindDirectionDegrees,WindSpeedMPH,WindSpeedGustMPH,Humidity,HourlyPrecipIn,Conditions,Clouds,dailyrainin,SoftwareType,DateUTC
2013-05-19 00:02:00,57.5,50.0,30.22,ESE,111,2.0,8.0,75,0.00,,,0.00,weatherlink.com 1.10,2013-05-19 04:02:00,
2013-05-19 00:18:00,57.1,50.0,30.22,SE,135,3.0,8.0,76,0.00,,,0.00,weatherlink.com 1.10,2013-05-19 04:18:00,
2013-05-19 00:33:00,56.9,50.0,30.22,SE,127,3.0,5.0,77,0.00,,,0.00,weatherlink.com 1.10,2013-05-19 04:33:00,
2013-05-19 00:49:00,56.5,50.0,30.22,SE,132,1.0,2.0,78,0.00,,,0.00,weatherlink.com 1.10,2013-05-19 04:49:00,
2013-05-19 01:05:00,56.3,50.0,30.22,ESE,114,3.0,4.0,79,0.00,,,0.00,weatherlink.com 1.10,2013-05-19 05:05:00,
2013-05-19 01:21:00,56.0,50.0,30.21,SE,129,0.0,4.0,79,0.00,,,0.00,weatherlink.com 1.10,2013-05-19 05:21:00,
2013-05-19 01:36:00,55.9,50.0,30.21,East,89,4.0,4.0,80,0.00,,,0.00,weatherlink.com 1.10,2013-05-19 05:36:00,
2013-05-19 01:52:00,55.7,50.0,30.21,SE,134,3.0,4.0,81,0.00,,,0.00,weatherlink.com 1.10,2013-05-19 05:52:00,
2013-05-19 02:08:00,55.5,50.0,30.21,ESE,113,1.0,2.0,82,0.00,,,0.00,weatherlink.com 1.10,2013-05-19 06:08:00,
2013-05-19 02:24:00,55.2,50.0,30.21,ESE,123,0.0,2.0,83,0.00,,,0.00,weatherlink.com 1.10,2013-05-19 06:24:00,
2013-05-19 02:40:00,54.8,50.0,30.21,ESE,123,0.0,0.0,84,0.00,,,0.00,weatherlink.com 1.10,2013-05-19 06:40:00,
2013-05-19 02:55:00,54.2,49.0,30.21,ESE,122,0.0,0.0,84,0.00,,,0.00,weatherlink.com 1.10,2013-05-19 06:55:00,
2013-05-19 03:11:00,53.9,50.0,30.21,ESE,123,0.0,1.0,86,0.00,,,0.00,weatherlink.com 1.10,2013-05-19 07:11:00,
2013-05-19 03:27:00,53.7,50.0,30.21,ESE,122,0.0,0.0,86,0.00,,,0.00,weatherlink.com 1.10,2013-05-19 07:27:00,
2013-05-19 03:43:00,53.3,49.0,30.22,ESE,123,0.0,0.0,86,0.00,,,0.00,weatherlink.com 1.10,2013-05-19 07:43:00,
2013-05-19 03:58:00,52.3,49.0,30.22,ESE,123,0.0,1.0,87,0.00,,,0.00,weatherlink.com 1.10,2013-05-19 07:58:00,
2013-05-19 04:14:00,51.4,48.0,30.22,ESE,123,0.0,0.0,88,0.00,,,0.00,weatherlink.com 1.10,2013-05-19 08:14:00,
2013-05-19 04:30:00,51.1,48.0,30.22,ESE,123,0.0,0.0,89,0.00,,,0.00,weatherlink.com 1.10,2013-05-19 08:30:00,
2013-05-19 04:46:00,50.8,48.0,30.22,ESE,123,0.0,0.0,89,0.00,,,0.00,weatherlink.com 1.10,2013-05-19 08:46:00,
2013-05-19 05:02:00,50.3,47.0,30.22,ESE,123,0.0,0.0,89,0.00,,,0.00,weatherlink.com 1.10,2013-05-19 09:02:00,
2013-05-19 05:17:00,49.7,47.0,30.22,ESE,123,0.0,0.0,90,0.00,,,0.00,weatherlink.com 1.10,2013-05-19 09:17:00,
2013-05-19 05:33:00,49.3,47.0,30.23,ESE,123,0.0,0.0,91,0.00,,,0.00,weatherlink.com 1.10,2013-05-19 09:33:00,
2013-05-19 05:49:00,49.6,47.0,30.23,ESE,122,0.0,0.0,91,0.00,,,0.00,weatherlink.com 1.10,2013-05-19 09:49:00,
2013-05-19 06:05:00,49.7,47.0,30.23,ESE,123,0.0,0.0,92,0.00,,,0.00,weatherlink.com 1.10,2013-05-19 10:05:00,
2013-05-19 06:21:00,50.2,48.0,30.23,ESE,123,0.0,0.0,91,0.00,,,0.00,weatherlink.com 1.10,2013-05-19 10:21:00,
2013-05-19 06:37:00,51.3,49.0,30.24,ESE,123,0.0,0.0,92,0.00,,,0.00,weatherlink.com 1.10,2013-05-19 10:37:00,
2013-05-19 06:53:00,53.1,50.0,30.24,ESE,122,0.0,0.0,90,0.00,,,0.00,weatherlink.com 1.10,2013-05-19 10:53:00,
2013-05-19 07:09:00,54.3,51.0,30.24,ESE,123,0.0,0.0,88,0.00,,,0.00,weatherlink.com 1.10,2013-05-19 11:09:00,
2013-05-19 07:24:00,54.9,51.0,30.24,WNW,301,0.0,2.0,87,0.00,,,0.00,weatherlink.com 1.10,2013-05-19 11:24:00,
2013-05-19 07:40:00,56.2,52.0,30.24,ESE,117,3.0,3.0,86,0.00,,,0.00,weatherlink.com 1.10,2013-05-19 11:40:00,
2013-05-19 07:56:00,58.4,53.0,30.24,ESE,122,1.0,6.0,81,0.00,,,0.00,weatherlink.com 1.10,2013-05-19 11:56:00,
2013-05-19 08:12:00,59.3,53.0,30.24,SE,124,2.0,7.0,80,0.00,,,0.00,weatherlink.com 1.10,2013-05-19 12:12:00,
2013-05-19 08:28:00,59.7,53.0,30.24,East,87,3.0,9.0,79,0.00,,,0.00,weatherlink.com 1.10,2013-05-19 12:28:00,
2013-05-19 08:44:00,59.7,53.0,30.25,SE,146,4.0,10.0,79,0.00,,,0.00,weatherlink.com 1.10,2013-05-19 12:44:00,
2013-05-19 09:00:00,60.2,53.0,30.24,ESE,122,5.0,14.0,78,0.00,,,0.00,weatherlink.com 1.10,2013-05-19 13:00:00,
2013-05-19 09:16:00,60.5,53.0,30.25,SE,134,2.0,12.0,77,0.00,,,0.00,weatherlink.com 1.10,2013-05-19 13:16:00,
2013-05-19 09:31:00,60.0,53.0,30.25,ESE,121,4.0,14.0,78,0.00,,,0.00,weatherlink.com 1.10,2013-05-19 13:31:00,
2013-05-19 09:47:00,59.3,53.0,30.26,ESE,103,4.0,9.0,81,0.00,,,0.00,weatherlink.com 1.10,2013-05-19 13:47:00,
2013-05-19 10:03:00,58.7,54.0,30.25,East,98,4.0,14.0,83,0.00,,,0.00,weatherlink.com 1.10,2013-05-19 14:03:00,
2013-05-19 10:19:00,58.5,54.0,30.25,SSW,212,2.0,8.0,86,0.00,,,0.00,weatherlink.com 1.10,2013-05-19 14:19:00,
2013-05-19 10:35:00,58.2,54.0,30.26,ESE,120,4.0,12.0,87,0.00,,,0.00,weatherlink.com 1.10,2013-05-19 14:35:00,
2013-05-19 10:50:00,58.0,54.0,30.26,ESE,106,6.0,11.0,88,0.01,,,0.01,weatherlink.com 1.10,2013-05-19 14:50:00,
2013-05-19 11:06:00,57.9,55.0,30.26,SE,133,6.0,9.0,89,0.02,,,0.02,weatherlink.com 1.10,2013-05-19 15:06:00,
2013-05-19 11:22:00,57.7,54.0,30.25,East,89,4.0,11.0,89,0.02,,,0.02,weatherlink.com 1.10,2013-05-19 15:22:00,
2013-05-19 11:38:00,57.8,55.0,30.25,East,97,2.0,6.0,90,0.02,,,0.02,weatherlink.com 1.10,2013-05-19 15:38:00,
2013-05-19 11:53:00,58.2,55.0,30.25,ESE,106,2.0,5.0,89,0.01,,,0.02,weatherlink.com 1.10,2013-05-19 15:53:00,
2013-05-19 12:09:00,58.5,55.0,30.25,SSE,148,3.0,9.0,88,0.00,,,0.02,weatherlink.com 1.10,2013-05-19 16:09:00,
2013-05-19 12:25:00,58.6,55.0,30.24,SSE,150,1.0,5.0,88,0.00,,,0.02,weatherlink.com 1.10,2013-05-19 16:25:00,
2013-05-19 12:41:00,58.8,55.0,30.23,East,91,4.0,8.0,88,0.00,,,0.02,weatherlink.com 1.10,2013-05-19 16:41:00,
2013-05-19 12:57:00,59.2,55.0,30.23,SE,134,5.0,10.0,86,0.00,,,0.02,weatherlink.com 1.10,2013-05-19 16:57:00,
2013-05-19 13:12:00,59.5,55.0,30.23,East,98,3.0,7.0,86,0.00,,,0.02,weatherlink.com 1.10,2013-05-19 17:12:00,
2013-05-19 13:28:00,59.6,55.0,30.22,ESE,107,8.0,9.0,86,0.00,,,0.02,weatherlink.com 1.10,2013-05-19 17:28:00,
2013-05-19 13:44:00,59.8,56.0,30.21,East,84,3.0,12.0,86,0.00,,,0.02,weatherlink.com 1.10,2013-05-19 17:44:00,
2013-05-19 14:00:00,59.9,56.0,30.21,ESE,114,3.0,13.0,86,0.00,,,0.02,weatherlink.com 1.10,2013-05-19 18:00:00,
2013-05-19 14:16:00,59.9,56.0,30.20,ESE,118,10.0,10.0,86,0.01,,,0.03,weatherlink.com 1.10,2013-05-19 18:16:00,
2013-05-19 14:31:00,59.7,56.0,30.20,SE,129,5.0,10.0,86,0.01,,,0.03,weatherlink.com 1.10,2013-05-19 18:31:00,
2013-05-19 14:47:00,59.7,56.0,30.20,SE,139,2.0,7.0,87,0.01,,,0.03,weatherlink.com 1.10,2013-05-19 18:47:00,
2013-05-19 15:03:00,59.6,56.0,30.19,SSE,148,4.0,8.0,88,0.01,,,0.04,weatherlink.com 1.10,2013-05-19 19:03:00,
2013-05-19 15:19:00,59.6,56.0,30.19,East,87,2.0,9.0,87,0.01,,,0.04,weatherlink.com 1.10,2013-05-19 19:19:00,
2013-05-19 15:34:00,59.6,56.0,30.18,SE,129,4.0,10.0,87,0.01,,,0.04,weatherlink.com 1.10,2013-05-19 19:34:00,
2013-05-19 15:50:00,59.7,56.0,30.18,ESE,114,3.0,9.0,87,0.01,,,0.04,weatherlink.com 1.10,2013-05-19 19:50:00,
2013-05-19 16:06:00,59.3,55.0,30.18,East,97,2.0,10.0,87,0.00,,,0.04,weatherlink.com 1.10,2013-05-19 20:06:00,
2013-05-19 16:22:00,59.0,56.0,30.18,ESE,117,7.0,8.0,89,0.00,,,0.04,weatherlink.com 1.10,2013-05-19 20:22:00,
2013-05-19 16:37:00,58.7,55.0,30.18,SE,141,2.0,8.0,89,0.01,,,0.05,weatherlink.com 1.10,2013-05-19 20:37:00,
2013-05-19 16:53:00,58.5,55.0,30.17,East,89,9.0,11.0,89,0.02,,,0.06,weatherlink.com 1.10,2013-05-19 20:53:00,
2013-05-19 17:09:00,58.6,55.0,30.16,East,90,3.0,11.0,89,0.02,,,0.06,weatherlink.com 1.10,2013-05-19 21:09:00,
2013-05-19 17:25:00,59.1,56.0,30.16,ESE,115,3.0,10.0,89,0.02,,,0.06,weatherlink.com 1.10,2013-05-19 21:25:00,
2013-05-19 17:40:00,59.3,55.0,30.16,SSW,204,2.0,11.0,87,0.01,,,0.06,weatherlink.com 1.10,2013-05-19 21:40:00,
2013-05-19 17:56:00,59.3,55.0,30.15,East,90,9.0,9.0,86,0.00,,,0.06,weatherlink.com 1.10,2013-05-19 21:56:00,
2013-05-19 18:12:00,59.6,55.0,30.15,ESE,118,10.0,12.0,85,0.00,,,0.06,weatherlink.com 1.10,2013-05-19 22:12:00,
2013-05-19 18:28:00,59.6,55.0,30.15,ESE,119,4.0,11.0,85,0.00,,,0.06,weatherlink.com 1.10,2013-05-19 22:28:00,
2013-05-19 18:44:00,59.6,55.0,30.14,ESE,110,3.0,11.0,85,0.00,,,0.06,weatherlink.com 1.10,2013-05-19 22:44:00,
2013-05-19 18:59:00,59.6,55.0,30.15,ENE,73,5.0,9.0,84,0.00,,,0.06,weatherlink.com 1.10,2013-05-19 22:59:00,
2013-05-19 19:15:00,59.4,55.0,30.15,ESE,121,4.0,8.0,84,0.00,,,0.06,weatherlink.com 1.10,2013-05-19 23:15:00,
2013-05-19 19:31:00,59.4,55.0,30.14,ESE,114,3.0,10.0,84,0.00,,,0.06,weatherlink.com 1.10,2013-05-19 23:31:00,
2013-05-19 19:46:00,59.4,55.0,30.14,SE,127,4.0,10.0,84,0.00,,,0.06,weatherlink.com 1.10,2013-05-19 23:46:00,
2013-05-19 20:03:00,59.3,54.0,30.14,SE,131,5.0,10.0,84,0.00,,,0.06,weatherlink.com 1.10,2013-05-20 00:03:00,
2013-05-19 20:20:00,59.1,54.0,30.14,SE,134,3.0,6.0,84,0.00,,,0.06,weatherlink.com 1.10,2013-05-20 00:20:00,
2013-05-19 20:36:00,59.1,54.0,30.14,ESE,115,6.0,7.0,84,0.00,,,0.06,weatherlink.com 1.10,2013-05-20 00:36:00,
2013-05-19 20:51:00,59.1,54.0,30.14,ESE,106,5.0,8.0,84,0.00,,,0.06,weatherlink.com 1.10,2013-05-20 00:51:00,
2013-05-19 21:07:00,59.1,54.0,30.14,NE,56,2.0,9.0,84,0.00,,,0.06,weatherlink.com 1.10,2013-05-20 01:07:00,
2013-05-19 21:23:00,59.0,54.0,30.15,ESE,103,3.0,6.0,85,0.00,,,0.06,weatherlink.com 1.10,2013-05-20 01:23:00,
2013-05-19 21:39:00,59.0,54.0,30.15,ESE,103,2.0,7.0,85,0.00,,,0.06,weatherlink.com 1.10,2013-05-20 01:39:00,
2013-05-19 21:54:00,59.0,54.0,30.14,ESE,103,0.0,6.0,85,0.00,,,0.06,weatherlink.com 1.10,2013-05-20 01:54:00,
2013-05-19 22:11:00,58.9,54.0,30.14,ESE,121,2.0,6.0,85,0.00,,,0.06,weatherlink.com 1.10,2013-05-20 02:11:00,
2013-05-19 22:26:00,58.8,54.0,30.13,ESE,110,2.0,5.0,85,0.00,,,0.06,weatherlink.com 1.10,2013-05-20 02:26:00,
2013-05-19 22:42:00,58.7,54.0,30.13,SE,134,4.0,6.0,85,0.00,,,0.06,weatherlink.com 1.10,2013-05-20 02:42:00,
2013-05-19 22:58:00,58.6,54.0,30.12,SE,144,3.0,5.0,85,0.00,,,0.06,weatherlink.com 1.10,2013-05-20 02:58:00,
2013-05-19 23:13:00,58.6,54.0,30.12,East,100,3.0,7.0,85,0.00,,,0.06,weatherlink.com 1.10,2013-05-20 03:13:00,
2013-05-19 23:29:00,58.5,54.0,30.11,SSW,208,0.0,4.0,86,0.00,,,0.06,weatherlink.com 1.10,2013-05-20 03:29:00,
2013-05-19 23:45:00,58.5,54.0,30.11,SE,135,1.0,8.0,86,0.00,,,0.06,weatherlink.com 1.10,2013-05-20 03:45:00,